createdAt,value
2023-10-10T00:01:47.029Z,4.18
2023-10-10T00:04:13.860Z,3.92
2023-10-10T00:06:41.773Z,4.72
2023-10-10T00:09:11.501Z,4.18
2023-10-10T00:11:42.708Z,4.75
2023-10-10T00:14:18.554Z,3.90
2023-10-10T00:16:45.831Z,4.00
2023-10-10T00:19:31.061Z,4.53
2023-10-10T00:21:58.101Z,4.63
2023-10-10T00:24:33.939Z,3.70
2023-10-10T00:27:28.145Z,4.05
2023-10-10T00:29:54.876Z,4.03
2023-10-10T00:34:51.990Z,3.90
2023-10-10T00:37:27.091Z,4.13
2023-10-10T00:39:53.761Z,3.97
2023-10-10T00:42:42.876Z,4.10
2023-10-10T00:45:11.329Z,3.92
2023-10-10T00:47:42.287Z,4.00
2023-10-10T00:50:15.768Z,4.15
2023-10-10T00:53:01.567Z,3.97
2023-10-10T00:55:34.403Z,3.90
2023-10-10T01:00:32.034Z,3.95
2023-10-10T01:03:23.883Z,4.00
2023-10-10T01:05:53.820Z,3.65
2023-10-10T01:08:21.536Z,4.13
2023-10-10T01:10:50.667Z,4.43
2023-10-10T01:13:18.378Z,3.75
2023-10-10T01:15:44.935Z,3.40
2023-10-10T01:18:15.010Z,3.58
2023-10-10T01:20:48.042Z,3.95
2023-10-10T01:23:19.853Z,3.58
2023-10-10T01:25:47.586Z,4.00
2023-10-10T01:28:21.772Z,3.65
2023-10-10T01:31:05.919Z,3.80
2023-10-10T01:33:36.246Z,3.55
2023-10-10T01:36:13.064Z,4.72
2023-10-10T01:38:53.838Z,3.58
2023-10-10T01:41:24.332Z,4.30
2023-10-10T01:43:54.671Z,3.85
2023-10-10T01:46:36.106Z,3.95
2023-10-10T01:49:04.024Z,4.20
2023-10-10T01:51:34.402Z,3.72
2023-10-10T01:54:15.232Z,4.35
2023-10-10T01:56:43.603Z,4.38
2023-10-10T01:59:21.120Z,4.50
2023-10-10T02:01:48.972Z,3.42
2023-10-10T02:04:15.772Z,4.70
2023-10-10T02:06:46.599Z,4.07
2023-10-10T02:09:14.002Z,4.28
2023-10-10T02:11:50.701Z,4.20
2023-10-10T02:14:19.982Z,4.30
2023-10-10T02:16:49.486Z,4.15
2023-10-10T02:19:26.673Z,3.88
2023-10-10T02:22:04.630Z,3.80
2023-10-10T02:24:31.260Z,3.80
2023-10-10T02:26:57.759Z,4.85
2023-10-10T02:29:30.364Z,3.92
2023-10-10T02:32:20.112Z,3.60
2023-10-10T02:35:02.198Z,3.63
2023-10-10T02:37:42.875Z,4.25
2023-10-10T02:40:16.263Z,3.40
2023-10-10T02:43:07.355Z,4.00
2023-10-10T02:45:36.857Z,3.40
2023-10-10T02:48:08.851Z,3.83
2023-10-10T02:50:41.627Z,3.47
2023-10-10T02:53:09.409Z,3.40
2023-10-10T02:55:41.915Z,3.53
2023-10-10T02:58:21.754Z,3.45
2023-10-10T03:00:52.363Z,3.45
2023-10-10T03:03:22.211Z,3.70
2023-10-10T03:05:52.410Z,3.30
2023-10-10T03:08:35.984Z,3.40
2023-10-10T03:11:14.426Z,2.90
2023-10-10T03:13:55.211Z,3.90
2023-10-10T03:16:21.892Z,3.83
2023-10-10T03:19:03.651Z,3.88
2023-10-10T03:21:36.871Z,3.90
2023-10-10T03:24:23.131Z,3.63
2023-10-10T03:26:50.410Z,4.10
2023-10-10T03:29:22.423Z,4.40
2023-10-10T03:31:57.189Z,3.80
2023-10-10T03:34:44.892Z,3.50
2023-10-10T03:37:27.647Z,3.78
2023-10-10T03:39:55.936Z,3.95
2023-10-10T03:42:44.816Z,3.85
2023-10-10T03:45:30.789Z,4.60
2023-10-10T03:48:15.888Z,4.07
2023-10-10T03:51:04.673Z,3.97
2023-10-10T03:53:49.823Z,4.70
2023-10-10T03:56:35.993Z,4.00
2023-10-10T03:59:21.882Z,4.15
2023-10-10T04:02:07.721Z,4.55
2023-10-10T04:04:52.717Z,4.68
2023-10-10T04:07:37.530Z,4.22
2023-10-10T04:10:25.126Z,4.22
2023-10-10T04:13:10.044Z,3.88
2023-10-10T04:18:40.509Z,3.67
2023-10-10T04:21:29.126Z,3.30
2023-10-10T04:24:14.879Z,3.15
2023-10-10T04:27:00.049Z,3.42
2023-10-10T04:32:30.216Z,3.92
2023-10-10T04:35:15.444Z,3.75
2023-10-10T04:38:00.685Z,3.60
2023-10-10T04:40:45.950Z,3.85
2023-10-10T04:43:31.349Z,3.88
2023-10-10T04:46:16.535Z,3.67
2023-10-10T04:49:01.482Z,4.18
2023-10-10T04:54:31.391Z,4.15
2023-10-10T04:57:16.560Z,3.60
2023-10-10T05:00:01.800Z,3.70
2023-10-10T05:02:47.280Z,4.40
2023-10-10T05:05:32.656Z,4.07
2023-10-10T05:08:18.344Z,3.67
2023-10-10T05:11:03.463Z,3.63
2023-10-10T05:13:48.826Z,3.75
2023-10-10T05:16:33.863Z,3.88
2023-10-10T05:19:19.057Z,3.70
2023-10-10T05:22:04.269Z,4.07
2023-10-10T05:24:30.887Z,4.90
2023-10-10T05:26:57.660Z,3.88
2023-10-10T05:29:25.362Z,4.15
2023-10-10T05:31:52.667Z,4.40
2023-10-10T05:34:24.016Z,4.97
2023-10-10T05:36:50.484Z,3.80
2023-10-10T05:39:22.242Z,4.60
2023-10-10T05:41:49.186Z,3.97
2023-10-10T05:46:44.936Z,3.28
2023-10-10T05:49:11.531Z,4.32
2023-10-10T05:51:38.042Z,4.38
2023-10-10T05:54:04.904Z,4.15
2023-10-10T05:58:58.192Z,3.72
2023-10-10T06:01:25.079Z,3.47
2023-10-10T06:03:52.493Z,3.63
2023-10-10T06:06:19.507Z,3.75
2023-10-10T06:08:46.603Z,4.20
2023-10-10T06:11:17.200Z,3.75
2023-10-10T06:13:46.793Z,3.90
2023-10-10T06:16:15.916Z,3.80
2023-10-10T06:18:45.765Z,4.72
2023-10-10T06:21:12.447Z,5.10
2023-10-10T06:23:43.021Z,4.15
2023-10-10T06:26:10.056Z,3.70
2023-10-10T06:28:49.445Z,3.50
2023-10-10T06:31:21.552Z,3.28
2023-10-10T06:36:22.536Z,3.67
2023-10-10T06:39:05.358Z,4.07
2023-10-10T06:41:58.242Z,4.07
2023-10-10T06:44:34.197Z,4.60
2023-10-10T06:47:02.020Z,4.53
2023-10-10T06:49:44.414Z,4.65
2023-10-10T06:52:19.163Z,4.60
2023-10-10T06:54:55.691Z,4.68
2023-10-10T06:57:45.486Z,4.78
2023-10-10T07:00:17.590Z,5.88
2023-10-10T07:02:49.490Z,5.55
2023-10-10T07:05:17.048Z,4.75
2023-10-10T07:07:44.158Z,4.68
2023-10-10T07:10:10.833Z,4.72
2023-10-10T07:12:39.871Z,4.45
2023-10-10T07:15:11.144Z,5.50
2023-10-10T07:17:40.109Z,4.88
2023-10-10T07:20:07.432Z,4.30
2023-10-10T07:22:35.753Z,3.75
2023-10-10T07:25:09.535Z,4.93
2023-10-10T07:27:37.735Z,5.25
2023-10-10T07:30:16.983Z,4.70
2023-10-10T07:32:49.729Z,5.32
2023-10-10T07:37:45.500Z,4.80
2023-10-10T07:40:29.359Z,4.65
2023-10-10T07:43:04.245Z,4.75
2023-10-10T07:45:43.153Z,4.63
2023-10-10T07:48:10.272Z,5.43
2023-10-10T07:50:47.968Z,5.53
2023-10-10T07:53:16.450Z,4.50
2023-10-10T07:55:58.608Z,4.88
2023-10-10T07:58:37.182Z,4.80
2023-10-10T08:01:17.490Z,5.07
2023-10-10T08:03:48.241Z,4.95
2023-10-10T08:06:18.250Z,5.68
2023-10-10T08:08:46.468Z,5.72
2023-10-10T08:11:25.813Z,4.78
2023-10-10T08:13:52.389Z,5.15
2023-10-10T08:16:23.470Z,4.90
2023-10-10T08:18:53.888Z,5.55
2023-10-10T08:21:23.595Z,6.10
2023-10-10T08:23:57.800Z,5.47
2023-10-10T08:26:30.845Z,4.72
2023-10-10T08:28:57.511Z,5.03
2023-10-10T08:31:24.238Z,4.93
2023-10-10T08:33:50.932Z,5.43
2023-10-10T08:36:26.040Z,7.03
2023-10-10T08:38:54.159Z,5.85
2023-10-10T08:41:23.475Z,5.18
2023-10-10T08:44:02.367Z,5.78
2023-10-10T08:49:00.238Z,4.95
2023-10-10T08:51:35.012Z,4.78
2023-10-10T08:54:13.202Z,4.78
2023-10-10T08:56:45.915Z,5.78
2023-10-10T08:59:15.585Z,4.50
2023-10-10T09:01:43.396Z,5.80
2023-10-10T09:04:21.341Z,5.32
2023-10-10T09:06:57.157Z,4.53
2023-10-10T09:09:39.218Z,5.10
2023-10-10T09:12:14.050Z,4.57
2023-10-10T09:14:42.468Z,4.78
2023-10-10T09:17:10.451Z,4.30
2023-10-10T09:19:40.963Z,6.28
2023-10-10T09:22:13.575Z,5.05
2023-10-10T09:24:42.426Z,5.38
2023-10-10T09:27:28.573Z,4.90
2023-10-10T09:29:57.861Z,4.28
2023-10-10T09:32:36.993Z,4.65
2023-10-10T09:35:09.838Z,5.22
2023-10-10T09:37:42.518Z,4.85
2023-10-10T09:40:16.865Z,5.05
2023-10-10T09:42:46.793Z,5.18
2023-10-10T09:45:27.932Z,5.20
2023-10-10T09:47:58.412Z,5.13
2023-10-10T09:50:30.935Z,4.88
2023-10-10T09:53:00.624Z,4.65
2023-10-10T09:55:33.550Z,3.90
2023-10-10T09:58:01.353Z,5.63
2023-10-10T10:00:40.906Z,4.72
2023-10-10T10:03:28.011Z,5.10
2023-10-10T10:06:27.511Z,4.78
2023-10-10T10:09:09.976Z,4.82
2023-10-10T10:12:04.921Z,5.82
2023-10-10T10:14:48.129Z,4.90
2023-10-10T10:17:49.376Z,4.93
2023-10-10T10:20:52.366Z,4.97
2023-10-10T10:26:02.398Z,4.10
2023-10-10T10:28:32.121Z,4.95
2023-10-10T10:31:05.785Z,4.32
2023-10-10T10:33:35.501Z,4.72
2023-10-10T10:36:16.216Z,3.55
2023-10-10T10:39:02.825Z,4.78
2023-10-10T10:41:43.112Z,4.55
2023-10-10T10:44:13.317Z,4.93
2023-10-10T10:46:49.090Z,5.18
2023-10-10T10:49:16.363Z,4.18
2023-10-10T10:51:48.635Z,4.30
2023-10-10T10:54:37.145Z,4.47
2023-10-10T10:57:04.542Z,5.30
2023-10-10T10:59:39.938Z,5.65
2023-10-10T11:02:15.235Z,5.05
2023-10-10T11:04:48.665Z,4.70
2023-10-10T11:07:27.569Z,5.13
2023-10-10T11:09:55.637Z,4.35
2023-10-10T11:12:32.741Z,4.10
2023-10-10T11:15:06.014Z,4.32
2023-10-10T11:17:39.195Z,4.22
2023-10-10T11:20:26.927Z,5.03
2023-10-10T11:22:57.812Z,5.00
2023-10-10T11:25:42.459Z,4.22
2023-10-10T11:28:24.365Z,4.15
2023-10-10T11:30:53.792Z,4.32
2023-10-10T11:33:55.173Z,4.07
2023-10-10T11:36:38.833Z,4.20
2023-10-10T11:39:24.694Z,4.53
2023-10-10T11:41:51.729Z,4.70
2023-10-10T11:44:20.633Z,4.70
2023-10-10T11:46:48.135Z,4.50
2023-10-10T11:49:16.510Z,4.70
2023-10-10T11:51:43.838Z,5.57
2023-10-10T11:54:10.442Z,6.57
2023-10-10T11:56:36.955Z,7.38
2023-10-10T11:59:10.962Z,7.88
2023-10-10T12:01:58.536Z,7.55
2023-10-10T12:04:34.292Z,5.93
2023-10-10T12:07:06.082Z,7.00
2023-10-10T12:09:34.308Z,6.20
2023-10-10T12:12:04.353Z,6.90
2023-10-10T12:14:32.204Z,7.82
2023-10-10T12:16:59.809Z,7.07
2023-10-10T12:19:29.204Z,7.60
2023-10-10T12:21:56.814Z,6.25
2023-10-10T12:24:24.111Z,7.43
2023-10-10T12:26:55.577Z,6.47
2023-10-10T12:29:26.004Z,6.50
2023-10-10T12:31:56.961Z,6.75
2023-10-10T12:34:24.798Z,6.20
2023-10-10T12:37:00.201Z,5.78
2023-10-10T12:39:29.975Z,5.82
2023-10-10T12:41:58.310Z,4.72
2023-10-10T12:44:24.965Z,5.88
2023-10-10T12:46:56.051Z,5.63
2023-10-10T12:49:30.125Z,5.97
2023-10-10T12:51:57.898Z,4.05
2023-10-10T12:54:35.807Z,5.55
2023-10-10T12:57:07.085Z,5.88
2023-10-10T12:59:35.136Z,5.82
2023-10-10T13:02:04.566Z,4.22
2023-10-10T13:04:34.637Z,5.97
2023-10-10T13:07:04.447Z,4.40
2023-10-10T13:09:33.030Z,5.80
2023-10-10T13:12:03.747Z,7.00
2023-10-10T13:14:33.886Z,5.32
2023-10-10T13:17:21.668Z,5.05
2023-10-10T13:19:49.765Z,4.53
2023-10-10T13:22:21.685Z,5.32
2023-10-10T13:24:49.908Z,6.20
2023-10-10T13:27:17.940Z,4.97
2023-10-10T13:29:44.627Z,5.05
2023-10-10T13:32:11.552Z,4.90
2023-10-10T13:34:38.931Z,5.78
2023-10-10T13:37:08.596Z,5.15
2023-10-10T13:39:49.208Z,5.22
2023-10-10T13:42:16.125Z,5.55
2023-10-10T13:44:43.505Z,5.03
2023-10-10T13:47:11.361Z,6.13
2023-10-10T13:49:45.361Z,5.78
2023-10-10T13:52:17.760Z,4.95
2023-10-10T13:54:44.480Z,5.50
2023-10-10T13:59:38.142Z,3.28
2023-10-10T14:02:05.698Z,5.50
2023-10-10T14:04:46.801Z,3.13
2023-10-10T14:07:15.483Z,5.97
2023-10-10T14:10:01.548Z,5.90
2023-10-10T14:12:32.956Z,6.05
2023-10-10T14:15:00.413Z,5.20
2023-10-10T14:17:26.930Z,5.65
2023-10-10T14:19:53.623Z,5.97
2023-10-10T14:22:24.665Z,5.55
2023-10-10T14:24:53.158Z,5.50
2023-10-10T14:27:21.210Z,5.47
2023-10-10T14:29:49.054Z,4.82
2023-10-10T14:32:30.955Z,5.72
2023-10-10T14:35:04.059Z,6.22
2023-10-10T14:37:49.288Z,4.65
2023-10-10T14:40:19.446Z,4.32
2023-10-10T14:42:45.976Z,4.93
2023-10-10T14:45:13.877Z,4.95
2023-10-10T14:47:44.810Z,5.68
2023-10-10T14:50:13.851Z,5.15
2023-10-10T14:52:48.314Z,5.10
2023-10-10T14:55:28.705Z,4.18
2023-10-10T14:57:56.733Z,5.00
2023-10-10T15:00:25.024Z,5.15
2023-10-10T15:02:54.951Z,4.28
2023-10-10T15:05:24.789Z,4.88
2023-10-10T15:07:53.525Z,4.68
2023-10-10T15:10:27.056Z,4.40
2023-10-10T15:12:54.505Z,4.55
2023-10-10T15:15:23.536Z,5.95
2023-10-10T15:17:51.117Z,4.90
2023-10-10T15:20:17.750Z,6.40
2023-10-10T15:22:44.188Z,4.93
2023-10-10T15:27:42.838Z,4.45
2023-10-10T15:30:10.390Z,5.03
2023-10-10T15:32:48.642Z,7.60
2023-10-10T15:35:18.003Z,5.00
2023-10-10T15:37:44.442Z,4.93
2023-10-10T15:42:51.236Z,4.93
2023-10-10T15:45:21.379Z,4.75
2023-10-10T15:47:50.373Z,4.40
2023-10-10T15:50:17.930Z,5.68
2023-10-10T15:52:50.308Z,5.05
2023-10-10T15:57:54.247Z,5.20
2023-10-10T16:00:33.930Z,5.28
2023-10-10T16:03:07.204Z,4.70
2023-10-10T16:05:40.655Z,4.68
2023-10-10T16:08:09.797Z,6.15
2023-10-10T16:10:38.918Z,5.35
2023-10-10T16:13:08.467Z,5.43
2023-10-10T16:15:35.411Z,4.95
2023-10-10T16:18:02.265Z,4.68
2023-10-10T16:20:28.948Z,5.50
2023-10-10T16:22:56.795Z,4.90
2023-10-10T16:25:25.248Z,4.40
2023-10-10T16:27:52.120Z,4.70
2023-10-10T16:30:18.819Z,4.32
2023-10-10T16:32:45.869Z,5.80
2023-10-10T16:35:12.771Z,4.45
2023-10-10T16:37:41.327Z,3.90
2023-10-10T16:40:10.770Z,5.03
2023-10-10T16:42:37.744Z,4.10
2023-10-10T16:45:06.177Z,4.10
2023-10-10T16:47:33.751Z,4.07
2023-10-10T16:50:00.753Z,4.47
2023-10-10T16:52:27.815Z,3.90
2023-10-10T16:54:54.940Z,4.18
2023-10-10T16:57:25.793Z,4.03
2023-10-10T16:59:53.742Z,4.90
2023-10-10T17:02:20.594Z,4.60
2023-10-10T17:07:13.729Z,4.78
2023-10-10T17:12:07.418Z,4.55
2023-10-10T17:14:38.387Z,3.53
2023-10-10T17:17:08.313Z,3.38
2023-10-10T17:19:37.022Z,4.38
2023-10-10T17:22:03.828Z,3.70
2023-10-10T17:24:32.614Z,3.92
2023-10-10T17:26:59.243Z,4.05
2023-10-10T17:29:27.761Z,4.05
2023-10-10T17:31:54.429Z,4.10
2023-10-10T17:34:23.168Z,4.45
2023-10-10T17:36:58.444Z,4.20
2023-10-10T17:39:25.551Z,4.28
2023-10-10T17:41:53.417Z,4.20
2023-10-10T17:44:20.317Z,3.97
2023-10-10T17:46:48.036Z,4.18
2023-10-10T17:49:15.373Z,3.72
2023-10-10T17:51:45.521Z,3.88
2023-10-10T17:54:12.732Z,4.22
2023-10-10T17:59:07.323Z,4.05
2023-10-10T18:01:34.443Z,3.35
2023-10-10T18:04:04.252Z,3.90
2023-10-10T18:06:31.118Z,4.13
2023-10-10T18:11:45.070Z,4.35
2023-10-10T18:14:11.625Z,4.32
2023-10-10T18:16:38.272Z,4.60
2023-10-10T18:21:34.110Z,4.35
2023-10-10T18:24:07.047Z,4.43
2023-10-10T18:26:38.360Z,4.15
2023-10-10T18:29:05.666Z,4.03
2023-10-10T18:31:34.797Z,4.07
2023-10-10T18:34:05.887Z,4.05
2023-10-10T18:36:35.435Z,3.50
2023-10-10T18:39:02.151Z,4.60
2023-10-10T18:41:30.793Z,4.00
2023-10-10T18:43:57.353Z,5.03
2023-10-10T18:48:52.966Z,3.88
2023-10-10T18:51:19.828Z,3.92
2023-10-10T18:53:48.290Z,4.32
2023-10-10T18:56:15.175Z,4.18
2023-10-10T18:58:42.304Z,4.72
2023-10-10T19:01:11.052Z,3.80
2023-10-10T19:03:37.992Z,4.28
2023-10-10T19:06:07.177Z,4.20
2023-10-10T19:08:34.377Z,4.40
2023-10-10T19:11:01.969Z,4.30
2023-10-10T19:13:31.845Z,3.95
2023-10-10T19:15:58.432Z,4.38
2023-10-10T19:18:24.960Z,3.95
2023-10-10T19:20:51.809Z,4.90
2023-10-10T19:23:19.845Z,3.60
2023-10-10T19:25:49.409Z,5.00
2023-10-10T19:28:17.470Z,4.20
2023-10-10T19:30:45.823Z,4.38
2023-10-10T19:33:15.576Z,4.13
2023-10-10T19:35:46.025Z,3.88
2023-10-10T19:38:13.137Z,5.30
2023-10-10T19:40:44.482Z,5.10
2023-10-10T19:43:12.382Z,4.90
2023-10-10T19:45:39.840Z,4.80
2023-10-10T19:48:07.577Z,4.25
2023-10-10T19:50:48.769Z,4.72
2023-10-10T19:53:17.162Z,4.53
2023-10-10T19:55:45.421Z,4.70
2023-10-10T19:58:13.012Z,4.55
2023-10-10T20:00:41.023Z,4.93
2023-10-10T20:03:10.949Z,4.50
2023-10-10T20:05:38.187Z,5.60
2023-10-10T20:08:07.159Z,5.13
2023-10-10T20:10:34.632Z,5.10
2023-10-10T20:13:01.365Z,5.20
2023-10-10T20:15:29.270Z,5.75
2023-10-10T20:17:59.808Z,5.10
2023-10-10T20:20:27.378Z,3.92
2023-10-10T20:22:57.837Z,5.07
2023-10-10T20:25:24.933Z,4.53
2023-10-10T20:27:51.881Z,3.97
2023-10-10T20:30:20.540Z,5.32
2023-10-10T20:32:48.306Z,4.80
2023-10-10T20:35:19.142Z,5.47
2023-10-10T20:37:49.309Z,5.35
2023-10-10T20:40:19.853Z,4.80
2023-10-10T20:42:47.802Z,4.70
2023-10-10T20:45:16.088Z,4.93
2023-10-10T20:47:44.172Z,4.95
2023-10-10T20:50:14.684Z,5.43
2023-10-10T20:52:42.150Z,5.25
2023-10-10T20:55:11.808Z,4.03
2023-10-10T20:57:39.719Z,5.03
2023-10-10T21:00:11.729Z,5.05
2023-10-10T21:02:43.305Z,5.53
2023-10-10T21:05:10.148Z,4.43
2023-10-10T21:07:39.190Z,4.38
2023-10-10T21:10:12.995Z,4.43
2023-10-10T21:12:41.339Z,4.65
2023-10-10T21:15:10.094Z,3.92
2023-10-10T21:17:37.274Z,4.20
2023-10-10T21:20:13.521Z,4.05
2023-10-10T21:22:41.649Z,3.50
2023-10-10T21:25:09.813Z,4.43
2023-10-10T21:27:37.094Z,3.90
2023-10-10T21:30:06.959Z,4.03
2023-10-10T21:32:35.187Z,4.65
2023-10-10T21:35:09.616Z,4.10
2023-10-10T21:37:38.260Z,4.30
2023-10-10T21:40:13.571Z,4.78
2023-10-10T21:42:41.198Z,4.15
2023-10-10T21:45:08.296Z,3.50
2023-10-10T21:47:35.424Z,3.70
2023-10-10T21:52:42.145Z,3.90
2023-10-10T21:55:13.469Z,4.18
2023-10-10T21:57:41.516Z,4.47
2023-10-10T22:00:17.005Z,3.80
2023-10-10T22:02:45.546Z,4.05
2023-10-10T22:05:17.138Z,3.22
2023-10-10T22:07:48.354Z,3.67
2023-10-10T22:10:21.015Z,3.60
2023-10-10T22:12:56.358Z,3.55
2023-10-10T22:15:26.662Z,4.13
2023-10-10T22:17:55.938Z,3.05
2023-10-10T22:20:24.019Z,4.07
2023-10-10T22:22:50.668Z,3.35
2023-10-10T22:27:47.772Z,3.38
2023-10-10T22:30:16.811Z,3.30
2023-10-10T22:32:44.887Z,3.90
2023-10-10T22:35:19.551Z,3.17
2023-10-10T22:37:51.250Z,3.78
2023-10-10T22:40:27.132Z,3.33
2023-10-10T22:43:02.508Z,3.72
2023-10-10T22:45:36.113Z,2.95
2023-10-10T22:48:08.945Z,3.50
2023-10-10T22:50:36.531Z,3.70
2023-10-10T22:53:05.194Z,3.60
2023-10-10T22:55:36.158Z,3.47
2023-10-10T22:58:07.414Z,3.40
2023-10-10T23:00:38.329Z,3.00
2023-10-10T23:03:07.021Z,3.17
2023-10-10T23:05:34.577Z,3.10
2023-10-10T23:08:02.506Z,3.10
2023-10-10T23:10:34.285Z,3.55
2023-10-10T23:13:02.956Z,3.30
2023-10-10T23:15:29.997Z,3.85
2023-10-10T23:17:59.137Z,3.63
2023-10-10T23:20:30.808Z,3.58
2023-10-10T23:23:05.563Z,3.88
2023-10-10T23:25:32.812Z,3.97
2023-10-10T23:27:59.861Z,3.40
2023-10-10T23:30:28.741Z,3.20
2023-10-10T23:32:56.848Z,3.85
2023-10-10T23:35:25.435Z,3.15
2023-10-10T23:37:56.546Z,3.38
2023-10-10T23:40:38.393Z,3.28
2023-10-10T23:43:06.729Z,3.72
2023-10-10T23:45:58.532Z,3.53
2023-10-10T23:48:32.237Z,3.67
2023-10-10T23:50:59.864Z,3.38
2023-10-10T23:53:26.457Z,3.13
2023-10-10T23:55:56.248Z,3.40
2023-10-10T23:58:26.047Z,2.83
